sensor_id;sensor_type;location;lat;lon;timestamp;P1;durP1;ratioP1;P2;durP2;ratioP2
71368;SDS011;59175;53.214;5.728;2023-02-15T00:00:51;7.00;;;2.57;;
71368;SDS011;59175;53.214;5.728;2023-02-15T00:03:19;6.93;;;2.60;;
71368;SDS011;59175;53.214;5.728;2023-02-15T00:05:44;9.90;;;2.80;;
71368;SDS011;59175;53.214;5.728;2023-02-15T00:08:10;9.77;;;3.17;;
71368;SDS011;59175;53.214;5.728;2023-02-15T00:10:35;4.87;;;3.17;;
71368;SDS011;59175;53.214;5.728;2023-02-15T00:13:00;4.23;;;2.17;;
71368;SDS011;59175;53.214;5.728;2023-02-15T00:15:25;5.70;;;2.47;;
71368;SDS011;59175;53.214;5.728;2023-02-15T00:17:50;7.67;;;3.23;;
71368;SDS011;59175;53.214;5.728;2023-02-15T00:20:16;5.13;;;2.10;;
71368;SDS011;59175;53.214;5.728;2023-02-15T00:22:41;9.03;;;2.77;;
71368;SDS011;59175;53.214;5.728;2023-02-15T00:25:06;5.70;;;2.13;;
71368;SDS011;59175;53.214;5.728;2023-02-15T00:27:32;6.43;;;3.00;;
71368;SDS011;59175;53.214;5.728;2023-02-15T00:29:57;5.30;;;2.58;;
71368;SDS011;59175;53.214;5.728;2023-02-15T00:32:23;7.77;;;3.00;;
71368;SDS011;59175;53.214;5.728;2023-02-15T00:34:48;6.73;;;3.23;;
71368;SDS011;59175;53.214;5.728;2023-02-15T00:37:13;7.13;;;2.67;;
71368;SDS011;59175;53.214;5.728;2023-02-15T00:39:38;4.20;;;1.87;;
71368;SDS011;59175;53.214;5.728;2023-02-15T00:42:04;4.70;;;1.83;;
71368;SDS011;59175;53.214;5.728;2023-02-15T00:44:29;4.43;;;2.00;;
71368;SDS011;59175;53.214;5.728;2023-02-15T00:46:55;7.33;;;2.57;;
71368;SDS011;59175;53.214;5.728;2023-02-15T00:49:20;5.10;;;1.80;;
71368;SDS011;59175;53.214;5.728;2023-02-15T00:51:45;5.27;;;2.30;;
71368;SDS011;59175;53.214;5.728;2023-02-15T00:54:10;6.83;;;2.20;;
71368;SDS011;59175;53.214;5.728;2023-02-15T00:56:35;7.07;;;2.07;;
71368;SDS011;59175;53.214;5.728;2023-02-15T00:59:01;5.20;;;1.63;;
71368;SDS011;59175;53.214;5.728;2023-02-15T01:01:26;5.33;;;2.07;;
71368;SDS011;59175;53.214;5.728;2023-02-15T01:03:51;4.90;;;1.87;;
71368;SDS011;59175;53.214;5.728;2023-02-15T01:06:16;5.80;;;1.27;;
71368;SDS011;59175;53.214;5.728;2023-02-15T01:08:42;5.40;;;2.93;;
71368;SDS011;59175;53.214;5.728;2023-02-15T01:11:10;5.22;;;2.03;;
71368;SDS011;59175;53.214;5.728;2023-02-15T01:13:35;5.70;;;2.42;;
71368;SDS011;59175;53.214;5.728;2023-02-15T01:16:00;4.77;;;1.90;;
71368;SDS011;59175;53.214;5.728;2023-02-15T01:18:26;3.23;;;1.37;;
71368;SDS011;59175;53.214;5.728;2023-02-15T01:20:51;8.70;;;2.50;;
71368;SDS011;59175;53.214;5.728;2023-02-15T01:23:17;5.17;;;2.10;;
71368;SDS011;59175;53.214;5.728;2023-02-15T01:25:42;2.43;;;1.10;;
71368;SDS011;59175;53.214;5.728;2023-02-15T01:28:07;4.33;;;2.23;;
71368;SDS011;59175;53.214;5.728;2023-02-15T01:30:32;3.67;;;1.47;;
71368;SDS011;59175;53.214;5.728;2023-02-15T01:32:58;3.85;;;1.73;;
71368;SDS011;59175;53.214;5.728;2023-02-15T01:35:25;2.95;;;1.48;;
71368;SDS011;59175;53.214;5.728;2023-02-15T01:37:50;7.73;;;2.57;;
71368;SDS011;59175;53.214;5.728;2023-02-15T01:40:16;7.10;;;2.10;;
71368;SDS011;59175;53.214;5.728;2023-02-15T01:42:42;6.72;;;1.98;;
71368;SDS011;59175;53.214;5.728;2023-02-15T01:45:16;5.03;;;1.73;;
71368;SDS011;59175;53.214;5.728;2023-02-15T01:47:44;7.15;;;2.97;;
71368;SDS011;59175;53.214;5.728;2023-02-15T01:50:17;4.00;;;1.48;;
71368;SDS011;59175;53.214;5.728;2023-02-15T01:52:54;3.95;;;1.77;;
71368;SDS011;59175;53.214;5.728;2023-02-15T01:55:21;4.10;;;1.87;;
71368;SDS011;59175;53.214;5.728;2023-02-15T01:57:46;4.97;;;1.88;;
71368;SDS011;59175;53.214;5.728;2023-02-15T02:00:12;9.67;;;1.70;;
71368;SDS011;59175;53.214;5.728;2023-02-15T02:02:38;4.38;;;1.48;;
71368;SDS011;59175;53.214;5.728;2023-02-15T02:05:03;4.07;;;1.87;;
71368;SDS011;59175;53.214;5.728;2023-02-15T02:07:35;4.68;;;2.10;;
71368;SDS011;59175;53.214;5.728;2023-02-15T02:10:02;5.75;;;2.05;;
71368;SDS011;59175;53.214;5.728;2023-02-15T02:12:27;7.83;;;2.60;;
71368;SDS011;59175;53.214;5.728;2023-02-15T02:14:52;7.67;;;3.37;;
71368;SDS011;59175;53.214;5.728;2023-02-15T02:17:22;5.65;;;2.30;;
71368;SDS011;59175;53.214;5.728;2023-02-15T02:27:23;4.68;;;1.95;;
71368;SDS011;59175;53.214;5.728;2023-02-15T02:33:07;8.43;;;2.23;;
71368;SDS011;59175;53.214;5.728;2023-02-15T02:35:21;5.68;;;2.15;;
71368;SDS011;59175;53.214;5.728;2023-02-15T02:37:58;3.45;;;1.25;;
71368;SDS011;59175;53.214;5.728;2023-02-15T02:40:39;4.88;;;1.52;;
71368;SDS011;59175;53.214;5.728;2023-02-15T02:43:11;3.10;;;1.20;;
71368;SDS011;59175;53.214;5.728;2023-02-15T02:45:50;3.33;;;1.17;;
71368;SDS011;59175;53.214;5.728;2023-02-15T02:48:19;4.50;;;2.47;;
71368;SDS011;59175;53.214;5.728;2023-02-15T02:50:46;4.53;;;1.65;;
71368;SDS011;59175;53.214;5.728;2023-02-15T02:53:11;6.73;;;1.97;;
71368;SDS011;59175;53.214;5.728;2023-02-15T02:58:18;2.47;;;1.33;;
71368;SDS011;59175;53.214;5.728;2023-02-15T03:00:48;3.63;;;1.87;;
71368;SDS011;59175;53.214;5.728;2023-02-15T03:03:26;3.97;;;1.90;;
71368;SDS011;59175;53.214;5.728;2023-02-15T03:05:53;5.47;;;1.52;;
71368;SDS011;59175;53.214;5.728;2023-02-15T03:08:19;4.85;;;2.22;;
71368;SDS011;59175;53.214;5.728;2023-02-15T03:10:51;2.70;;;1.33;;
71368;SDS011;59175;53.214;5.728;2023-02-15T03:13:17;3.40;;;1.40;;
71368;SDS011;59175;53.214;5.728;2023-02-15T03:15:42;4.97;;;2.78;;
71368;SDS011;59175;53.214;5.728;2023-02-15T03:18:49;7.38;;;1.65;;
71368;SDS011;59175;53.214;5.728;2023-02-15T03:21:17;4.53;;;2.25;;
71368;SDS011;59175;53.214;5.728;2023-02-15T03:23:48;3.35;;;1.25;;
71368;SDS011;59175;53.214;5.728;2023-02-15T03:26:14;4.75;;;1.80;;
71368;SDS011;59175;53.214;5.728;2023-02-15T03:28:43;3.50;;;1.27;;
71368;SDS011;59175;53.214;5.728;2023-02-15T03:31:12;5.47;;;1.73;;
71368;SDS011;59175;53.214;5.728;2023-02-15T03:33:38;8.00;;;3.33;;
71368;SDS011;59175;53.214;5.728;2023-02-15T03:36:09;4.90;;;2.20;;
71368;SDS011;59175;53.214;5.728;2023-02-15T03:38:40;4.55;;;1.63;;
71368;SDS011;59175;53.214;5.728;2023-02-15T03:41:07;4.47;;;1.58;;
71368;SDS011;59175;53.214;5.728;2023-02-15T03:46:21;5.53;;;2.00;;
71368;SDS011;59175;53.214;5.728;2023-02-15T03:48:52;5.75;;;2.65;;
71368;SDS011;59175;53.214;5.728;2023-02-15T03:51:19;4.45;;;1.77;;
71368;SDS011;59175;53.214;5.728;2023-02-15T03:54:01;5.05;;;1.67;;
71368;SDS011;59175;53.214;5.728;2023-02-15T03:56:27;3.55;;;1.63;;
71368;SDS011;59175;53.214;5.728;2023-02-15T03:58:52;3.17;;;1.70;;
71368;SDS011;59175;53.214;5.728;2023-02-15T04:01:38;3.77;;;1.47;;
71368;SDS011;59175;53.214;5.728;2023-02-15T04:04:23;3.65;;;1.42;;
71368;SDS011;59175;53.214;5.728;2023-02-15T04:06:49;3.75;;;1.90;;
71368;SDS011;59175;53.214;5.728;2023-02-15T04:09:14;6.47;;;1.50;;
71368;SDS011;59175;53.214;5.728;2023-02-15T04:11:58;2.97;;;1.15;;
71368;SDS011;59175;53.214;5.728;2023-02-15T04:14:23;3.33;;;1.53;;
71368;SDS011;59175;53.214;5.728;2023-02-15T04:17:08;2.95;;;1.30;;
71368;SDS011;59175;53.214;5.728;2023-02-15T04:19:33;5.03;;;1.50;;
71368;SDS011;59175;53.214;5.728;2023-02-15T04:22:17;4.22;;;1.42;;
71368;SDS011;59175;53.214;5.728;2023-02-15T04:25:01;5.82;;;1.40;;
71368;SDS011;59175;53.214;5.728;2023-02-15T04:27:39;4.15;;;1.73;;
71368;SDS011;59175;53.214;5.728;2023-02-15T04:30:05;3.57;;;1.70;;
71368;SDS011;59175;53.214;5.728;2023-02-15T04:32:31;2.72;;;1.48;;
71368;SDS011;59175;53.214;5.728;2023-02-15T04:34:56;6.93;;;2.13;;
71368;SDS011;59175;53.214;5.728;2023-02-15T04:37:21;2.00;;;0.80;;
71368;SDS011;59175;53.214;5.728;2023-02-15T04:39:47;6.07;;;2.17;;
71368;SDS011;59175;53.214;5.728;2023-02-15T04:42:12;5.63;;;1.33;;
71368;SDS011;59175;53.214;5.728;2023-02-15T04:44:37;6.23;;;2.40;;
71368;SDS011;59175;53.214;5.728;2023-02-15T04:47:02;3.10;;;1.60;;
71368;SDS011;59175;53.214;5.728;2023-02-15T04:49:27;3.03;;;1.53;;
71368;SDS011;59175;53.214;5.728;2023-02-15T04:51:53;4.70;;;2.43;;
71368;SDS011;59175;53.214;5.728;2023-02-15T04:54:18;3.27;;;1.33;;
71368;SDS011;59175;53.214;5.728;2023-02-15T04:56:43;6.37;;;2.10;;
71368;SDS011;59175;53.214;5.728;2023-02-15T04:59:11;10.70;;;2.47;;
71368;SDS011;59175;53.214;5.728;2023-02-15T05:01:36;5.90;;;2.25;;
71368;SDS011;59175;53.214;5.728;2023-02-15T05:04:02;5.47;;;1.83;;
71368;SDS011;59175;53.214;5.728;2023-02-15T05:06:27;5.63;;;1.67;;
71368;SDS011;59175;53.214;5.728;2023-02-15T05:08:52;6.53;;;1.37;;
71368;SDS011;59175;53.214;5.728;2023-02-15T05:11:18;9.53;;;3.27;;
71368;SDS011;59175;53.214;5.728;2023-02-15T05:13:43;6.07;;;2.37;;
71368;SDS011;59175;53.214;5.728;2023-02-15T05:16:08;8.83;;;3.07;;
71368;SDS011;59175;53.214;5.728;2023-02-15T05:18:33;5.33;;;2.13;;
71368;SDS011;59175;53.214;5.728;2023-02-15T05:20:58;4.37;;;2.27;;
71368;SDS011;59175;53.214;5.728;2023-02-15T05:23:24;6.27;;;2.43;;
71368;SDS011;59175;53.214;5.728;2023-02-15T05:25:49;6.30;;;2.50;;
71368;SDS011;59175;53.214;5.728;2023-02-15T05:28:34;4.50;;;2.53;;
71368;SDS011;59175;53.214;5.728;2023-02-15T05:33:28;7.85;;;2.90;;
71368;SDS011;59175;53.214;5.728;2023-02-15T05:35:53;5.43;;;2.83;;
71368;SDS011;59175;53.214;5.728;2023-02-15T05:38:18;9.17;;;3.07;;
71368;SDS011;59175;53.214;5.728;2023-02-15T05:40:43;6.33;;;2.03;;
71368;SDS011;59175;53.214;5.728;2023-02-15T05:43:08;5.57;;;3.27;;
71368;SDS011;59175;53.214;5.728;2023-02-15T05:45:34;4.97;;;1.93;;
71368;SDS011;59175;53.214;5.728;2023-02-15T05:47:59;8.17;;;2.97;;
71368;SDS011;59175;53.214;5.728;2023-02-15T05:50:25;5.70;;;2.17;;
71368;SDS011;59175;53.214;5.728;2023-02-15T05:52:50;5.85;;;2.90;;
71368;SDS011;59175;53.214;5.728;2023-02-15T05:55:16;7.38;;;4.05;;
71368;SDS011;59175;53.214;5.728;2023-02-15T05:57:41;5.63;;;3.40;;
71368;SDS011;59175;53.214;5.728;2023-02-15T06:00:07;6.68;;;2.53;;
71368;SDS011;59175;53.214;5.728;2023-02-15T06:02:33;4.90;;;2.57;;
71368;SDS011;59175;53.214;5.728;2023-02-15T06:04:59;7.30;;;2.92;;
71368;SDS011;59175;53.214;5.728;2023-02-15T06:07:24;9.47;;;4.27;;
71368;SDS011;59175;53.214;5.728;2023-02-15T06:09:49;7.23;;;3.80;;
71368;SDS011;59175;53.214;5.728;2023-02-15T06:12:14;10.63;;;2.87;;
71368;SDS011;59175;53.214;5.728;2023-02-15T06:14:40;5.90;;;2.13;;
71368;SDS011;59175;53.214;5.728;2023-02-15T06:17:05;7.40;;;4.50;;
71368;SDS011;59175;53.214;5.728;2023-02-15T06:19:30;5.07;;;1.87;;
71368;SDS011;59175;53.214;5.728;2023-02-15T06:21:55;6.47;;;3.37;;
71368;SDS011;59175;53.214;5.728;2023-02-15T06:24:20;9.90;;;3.17;;
71368;SDS011;59175;53.214;5.728;2023-02-15T06:26:46;7.53;;;2.53;;
71368;SDS011;59175;53.214;5.728;2023-02-15T06:29:11;10.60;;;3.27;;
71368;SDS011;59175;53.214;5.728;2023-02-15T06:31:36;11.83;;;4.27;;
71368;SDS011;59175;53.214;5.728;2023-02-15T06:34:01;4.07;;;2.10;;
71368;SDS011;59175;53.214;5.728;2023-02-15T06:36:27;4.68;;;2.25;;
71368;SDS011;59175;53.214;5.728;2023-02-15T06:38:53;6.43;;;2.63;;
71368;SDS011;59175;53.214;5.728;2023-02-15T06:41:18;4.70;;;2.60;;
71368;SDS011;59175;53.214;5.728;2023-02-15T06:43:43;4.27;;;2.07;;
71368;SDS011;59175;53.214;5.728;2023-02-15T06:46:09;12.53;;;4.53;;
71368;SDS011;59175;53.214;5.728;2023-02-15T06:48:34;9.87;;;3.57;;
71368;SDS011;59175;53.214;5.728;2023-02-15T06:50:59;8.73;;;4.53;;
71368;SDS011;59175;53.214;5.728;2023-02-15T06:53:24;6.93;;;3.73;;
71368;SDS011;59175;53.214;5.728;2023-02-15T06:55:49;9.97;;;2.80;;
71368;SDS011;59175;53.214;5.728;2023-02-15T06:58:15;5.67;;;3.43;;
71368;SDS011;59175;53.214;5.728;2023-02-15T07:00:40;21.90;;;12.30;;
71368;SDS011;59175;53.214;5.728;2023-02-15T07:03:05;13.27;;;8.37;;
71368;SDS011;59175;53.214;5.728;2023-02-15T07:05:32;14.53;;;3.73;;
71368;SDS011;59175;53.214;5.728;2023-02-15T07:07:57;10.85;;;4.75;;
71368;SDS011;59175;53.214;5.728;2023-02-15T07:10:23;6.57;;;3.80;;
71368;SDS011;59175;53.214;5.728;2023-02-15T07:12:48;10.93;;;4.00;;
71368;SDS011;59175;53.214;5.728;2023-02-15T07:15:14;8.33;;;5.03;;
71368;SDS011;59175;53.214;5.728;2023-02-15T07:17:40;8.35;;;4.65;;
71368;SDS011;59175;53.214;5.728;2023-02-15T07:20:06;13.67;;;4.13;;
71368;SDS011;59175;53.214;5.728;2023-02-15T07:22:32;7.95;;;3.22;;
71368;SDS011;59175;53.214;5.728;2023-02-15T07:24:58;7.63;;;2.70;;
71368;SDS011;59175;53.214;5.728;2023-02-15T07:27:24;8.53;;;3.67;;
71368;SDS011;59175;53.214;5.728;2023-02-15T07:29:49;8.67;;;3.83;;
71368;SDS011;59175;53.214;5.728;2023-02-15T07:32:14;10.30;;;4.50;;
71368;SDS011;59175;53.214;5.728;2023-02-15T07:34:40;10.70;;;4.20;;
71368;SDS011;59175;53.214;5.728;2023-02-15T07:37:05;5.28;;;2.97;;
71368;SDS011;59175;53.214;5.728;2023-02-15T07:39:30;9.13;;;5.67;;
71368;SDS011;59175;53.214;5.728;2023-02-15T07:41:55;5.53;;;1.97;;
71368;SDS011;59175;53.214;5.728;2023-02-15T07:44:20;8.57;;;3.97;;
71368;SDS011;59175;53.214;5.728;2023-02-15T07:46:46;15.33;;;5.23;;
71368;SDS011;59175;53.214;5.728;2023-02-15T07:49:11;16.93;;;7.17;;
71368;SDS011;59175;53.214;5.728;2023-02-15T07:51:36;19.43;;;8.67;;
71368;SDS011;59175;53.214;5.728;2023-02-15T07:54:01;8.13;;;3.27;;
71368;SDS011;59175;53.214;5.728;2023-02-15T07:56:27;16.60;;;3.47;;
71368;SDS011;59175;53.214;5.728;2023-02-15T07:58:52;11.73;;;4.87;;
71368;SDS011;59175;53.214;5.728;2023-02-15T08:01:18;5.73;;;2.83;;
71368;SDS011;59175;53.214;5.728;2023-02-15T08:03:44;15.90;;;4.57;;
71368;SDS011;59175;53.214;5.728;2023-02-15T08:06:09;9.00;;;3.60;;
71368;SDS011;59175;53.214;5.728;2023-02-15T08:08:36;9.82;;;4.25;;
71368;SDS011;59175;53.214;5.728;2023-02-15T08:16:36;9.50;;;5.50;;
71368;SDS011;59175;53.214;5.728;2023-02-15T08:19:12;12.75;;;5.25;;
71368;SDS011;59175;53.214;5.728;2023-02-15T08:21:38;11.48;;;5.32;;
71368;SDS011;59175;53.214;5.728;2023-02-15T08:24:04;9.00;;;4.70;;
71368;SDS011;59175;53.214;5.728;2023-02-15T08:26:30;12.27;;;4.37;;
71368;SDS011;59175;53.214;5.728;2023-02-15T08:28:56;10.25;;;3.33;;
71368;SDS011;59175;53.214;5.728;2023-02-15T08:31:21;11.60;;;5.80;;
71368;SDS011;59175;53.214;5.728;2023-02-15T08:33:47;10.27;;;4.03;;
71368;SDS011;59175;53.214;5.728;2023-02-15T08:36:14;11.02;;;4.13;;
71368;SDS011;59175;53.214;5.728;2023-02-15T08:38:40;7.03;;;3.00;;
71368;SDS011;59175;53.214;5.728;2023-02-15T08:43:40;8.40;;;4.13;;
71368;SDS011;59175;53.214;5.728;2023-02-15T08:46:06;5.88;;;3.08;;
71368;SDS011;59175;53.214;5.728;2023-02-15T08:48:31;9.50;;;3.78;;
71368;SDS011;59175;53.214;5.728;2023-02-15T08:50:57;22.47;;;8.63;;
71368;SDS011;59175;53.214;5.728;2023-02-15T08:53:22;44.40;;;14.23;;
71368;SDS011;59175;53.214;5.728;2023-02-15T08:55:54;22.80;;;9.17;;
71368;SDS011;59175;53.214;5.728;2023-02-15T08:58:20;19.63;;;6.80;;
71368;SDS011;59175;53.214;5.728;2023-02-15T09:00:45;13.97;;;6.97;;
71368;SDS011;59175;53.214;5.728;2023-02-15T09:03:10;10.00;;;4.93;;
71368;SDS011;59175;53.214;5.728;2023-02-15T09:05:35;11.60;;;5.10;;
71368;SDS011;59175;53.214;5.728;2023-02-15T09:08:01;12.03;;;3.83;;
71368;SDS011;59175;53.214;5.728;2023-02-15T09:10:26;13.93;;;5.73;;
71368;SDS011;59175;53.214;5.728;2023-02-15T09:12:51;12.67;;;5.37;;
71368;SDS011;59175;53.214;5.728;2023-02-15T09:15:17;10.23;;;5.43;;
71368;SDS011;59175;53.214;5.728;2023-02-15T09:17:42;15.33;;;4.93;;
71368;SDS011;59175;53.214;5.728;2023-02-15T09:20:07;10.30;;;4.83;;
71368;SDS011;59175;53.214;5.728;2023-02-15T09:22:33;13.60;;;5.50;;
71368;SDS011;59175;53.214;5.728;2023-02-15T09:24:58;10.73;;;4.47;;
71368;SDS011;59175;53.214;5.728;2023-02-15T09:27:23;8.63;;;4.47;;
71368;SDS011;59175;53.214;5.728;2023-02-15T09:29:48;10.57;;;5.60;;
71368;SDS011;59175;53.214;5.728;2023-02-15T09:32:14;13.63;;;3.90;;
71368;SDS011;59175;53.214;5.728;2023-02-15T09:34:39;10.45;;;4.68;;
71368;SDS011;59175;53.214;5.728;2023-02-15T09:37:05;6.50;;;3.90;;
71368;SDS011;59175;53.214;5.728;2023-02-15T09:39:30;20.70;;;6.13;;
71368;SDS011;59175;53.214;5.728;2023-02-15T10:11:02;17.13;;;6.38;;
71368;SDS011;59175;53.214;5.728;2023-02-15T10:13:52;12.73;;;6.47;;
71368;SDS011;59175;53.214;5.728;2023-02-15T10:16:35;17.90;;;7.73;;
71368;SDS011;59175;53.214;5.728;2023-02-15T10:21:43;15.88;;;6.30;;
71368;SDS011;59175;53.214;5.728;2023-02-15T10:34:06;17.60;;;6.88;;
71368;SDS011;59175;53.214;5.728;2023-02-15T10:36:53;25.17;;;9.25;;
71368;SDS011;59175;53.214;5.728;2023-02-15T10:42:02;19.60;;;8.23;;
71368;SDS011;59175;53.214;5.728;2023-02-15T10:49:36;23.38;;;9.48;;
71368;SDS011;59175;53.214;5.728;2023-02-15T11:02:15;20.75;;;9.35;;
71368;SDS011;59175;53.214;5.728;2023-02-15T11:07:32;16.13;;;9.53;;
71368;SDS011;59175;53.214;5.728;2023-02-15T11:12:26;21.65;;;8.57;;
71368;SDS011;59175;53.214;5.728;2023-02-15T11:17:22;19.98;;;9.32;;
71368;SDS011;59175;53.214;5.728;2023-02-15T11:20:15;23.40;;;9.13;;
71368;SDS011;59175;53.214;5.728;2023-02-15T11:22:34;19.00;;;6.35;;
71368;SDS011;59175;53.214;5.728;2023-02-15T11:24:59;14.07;;;8.60;;
71368;SDS011;59175;53.214;5.728;2023-02-15T11:27:27;19.90;;;7.33;;
71368;SDS011;59175;53.214;5.728;2023-02-15T11:30:00;16.90;;;7.90;;
71368;SDS011;59175;53.214;5.728;2023-02-15T11:32:33;18.33;;;8.07;;
71368;SDS011;59175;53.214;5.728;2023-02-15T11:35:19;24.05;;;10.20;;
71368;SDS011;59175;53.214;5.728;2023-02-15T11:40:21;22.90;;;11.87;;
71368;SDS011;59175;53.214;5.728;2023-02-15T11:42:48;32.35;;;11.23;;
71368;SDS011;59175;53.214;5.728;2023-02-15T11:45:18;20.52;;;7.57;;
71368;SDS011;59175;53.214;5.728;2023-02-15T11:47:44;20.98;;;10.02;;
71368;SDS011;59175;53.214;5.728;2023-02-15T11:50:14;22.73;;;9.17;;
71368;SDS011;59175;53.214;5.728;2023-02-15T11:52:40;23.42;;;10.65;;
71368;SDS011;59175;53.214;5.728;2023-02-15T11:55:09;29.40;;;11.77;;
71368;SDS011;59175;53.214;5.728;2023-02-15T11:57:37;24.20;;;9.05;;
71368;SDS011;59175;53.214;5.728;2023-02-15T12:00:10;25.60;;;10.67;;
71368;SDS011;59175;53.214;5.728;2023-02-15T12:02:39;28.60;;;11.18;;
71368;SDS011;59175;53.214;5.728;2023-02-15T12:05:07;27.80;;;11.73;;
71368;SDS011;59175;53.214;5.728;2023-02-15T12:07:35;28.27;;;10.63;;
71368;SDS011;59175;53.214;5.728;2023-02-15T12:12:45;29.93;;;11.13;;
71368;SDS011;59175;53.214;5.728;2023-02-15T12:15:11;27.27;;;11.15;;
71368;SDS011;59175;53.214;5.728;2023-02-15T12:17:42;25.92;;;7.60;;
71368;SDS011;59175;53.214;5.728;2023-02-15T12:22:38;35.10;;;12.17;;
71368;SDS011;59175;53.214;5.728;2023-02-15T12:25:18;27.42;;;12.02;;
71368;SDS011;59175;53.214;5.728;2023-02-15T12:27:45;30.42;;;12.63;;
71368;SDS011;59175;53.214;5.728;2023-02-15T12:30:22;24.60;;;10.60;;
71368;SDS011;59175;53.214;5.728;2023-02-15T12:32:51;29.13;;;11.63;;
71368;SDS011;59175;53.214;5.728;2023-02-15T12:35:27;32.67;;;9.50;;
71368;SDS011;59175;53.214;5.728;2023-02-15T12:37:54;25.75;;;9.00;;
71368;SDS011;59175;53.214;5.728;2023-02-15T12:40:24;25.25;;;10.55;;
71368;SDS011;59175;53.214;5.728;2023-02-15T12:42:50;30.95;;;13.02;;
71368;SDS011;59175;53.214;5.728;2023-02-15T12:45:20;26.70;;;10.50;;
71368;SDS011;59175;53.214;5.728;2023-02-15T12:47:46;21.75;;;9.75;;
71368;SDS011;59175;53.214;5.728;2023-02-15T12:50:14;24.03;;;9.50;;
71368;SDS011;59175;53.214;5.728;2023-02-15T12:52:43;32.67;;;10.88;;
71368;SDS011;59175;53.214;5.728;2023-02-15T12:55:24;33.85;;;10.77;;
71368;SDS011;59175;53.214;5.728;2023-02-15T12:58:04;21.35;;;10.60;;
71368;SDS011;59175;53.214;5.728;2023-02-15T13:00:29;23.80;;;10.35;;
71368;SDS011;59175;53.214;5.728;2023-02-15T13:02:57;28.60;;;10.90;;
71368;SDS011;59175;53.214;5.728;2023-02-15T13:05:33;30.63;;;11.82;;
71368;SDS011;59175;53.214;5.728;2023-02-15T13:10:36;27.10;;;11.13;;
71368;SDS011;59175;53.214;5.728;2023-02-15T13:13:01;26.20;;;10.40;;
71368;SDS011;59175;53.214;5.728;2023-02-15T13:15:37;29.60;;;10.77;;
71368;SDS011;59175;53.214;5.728;2023-02-15T13:18:04;25.98;;;9.60;;
71368;SDS011;59175;53.214;5.728;2023-02-15T13:20:30;22.75;;;9.68;;
71368;SDS011;59175;53.214;5.728;2023-02-15T13:23:01;28.45;;;10.93;;
71368;SDS011;59175;53.214;5.728;2023-02-15T13:25:29;20.42;;;7.55;;
71368;SDS011;59175;53.214;5.728;2023-02-15T13:28:00;24.00;;;9.80;;
71368;SDS011;59175;53.214;5.728;2023-02-15T13:30:27;23.30;;;9.15;;
71368;SDS011;59175;53.214;5.728;2023-02-15T13:32:57;20.15;;;10.02;;
71368;SDS011;59175;53.214;5.728;2023-02-15T13:35:23;23.15;;;11.70;;
71368;SDS011;59175;53.214;5.728;2023-02-15T13:37:54;17.65;;;8.93;;
71368;SDS011;59175;53.214;5.728;2023-02-15T13:40:41;15.77;;;6.50;;
71368;SDS011;59175;53.214;5.728;2023-02-15T13:48:15;21.23;;;9.02;;
71368;SDS011;59175;53.214;5.728;2023-02-15T13:53:23;21.60;;;7.87;;
71368;SDS011;59175;53.214;5.728;2023-02-15T13:55:50;18.77;;;7.93;;
71368;SDS011;59175;53.214;5.728;2023-02-15T14:08:44;19.52;;;8.88;;
71368;SDS011;59175;53.214;5.728;2023-02-15T14:19:35;27.43;;;9.20;;
71368;SDS011;59175;53.214;5.728;2023-02-15T14:30:02;18.60;;;8.13;;
71368;SDS011;59175;53.214;5.728;2023-02-15T14:35:27;21.83;;;8.25;;
71368;SDS011;59175;53.214;5.728;2023-02-15T14:37:58;23.77;;;10.00;;
71368;SDS011;59175;53.214;5.728;2023-02-15T14:46:05;22.07;;;9.13;;
71368;SDS011;59175;53.214;5.728;2023-02-15T14:48:38;22.97;;;9.83;;
71368;SDS011;59175;53.214;5.728;2023-02-15T14:51:06;17.48;;;7.47;;
71368;SDS011;59175;53.214;5.728;2023-02-15T14:53:33;22.63;;;9.07;;
71368;SDS011;59175;53.214;5.728;2023-02-15T14:58:35;22.92;;;8.30;;
71368;SDS011;59175;53.214;5.728;2023-02-15T15:01:06;19.70;;;10.23;;
71368;SDS011;59175;53.214;5.728;2023-02-15T15:03:32;14.13;;;7.47;;
71368;SDS011;59175;53.214;5.728;2023-02-15T15:05:58;18.73;;;8.27;;
71368;SDS011;59175;53.214;5.728;2023-02-15T15:08:27;25.73;;;9.43;;
71368;SDS011;59175;53.214;5.728;2023-02-15T15:10:54;21.00;;;9.82;;
71368;SDS011;59175;53.214;5.728;2023-02-15T15:13:34;18.92;;;7.95;;
71368;SDS011;59175;53.214;5.728;2023-02-15T15:21:09;21.93;;;9.00;;
71368;SDS011;59175;53.214;5.728;2023-02-15T15:23:39;23.65;;;11.30;;
71368;SDS011;59175;53.214;5.728;2023-02-15T15:31:27;15.80;;;7.75;;
71368;SDS011;59175;53.214;5.728;2023-02-15T15:44:04;23.60;;;8.17;;
71368;SDS011;59175;53.214;5.728;2023-02-15T15:49:19;18.15;;;8.02;;
71368;SDS011;59175;53.214;5.728;2023-02-15T15:51:45;25.45;;;8.75;;
71368;SDS011;59175;53.214;5.728;2023-02-15T15:54:17;28.33;;;10.67;;
71368;SDS011;59175;53.214;5.728;2023-02-15T15:56:44;26.50;;;9.05;;
71368;SDS011;59175;53.214;5.728;2023-02-15T15:59:12;20.20;;;8.68;;
71368;SDS011;59175;53.214;5.728;2023-02-15T16:01:41;21.33;;;10.52;;
71368;SDS011;59175;53.214;5.728;2023-02-15T16:04:10;19.65;;;9.00;;
71368;SDS011;59175;53.214;5.728;2023-02-15T16:06:37;22.90;;;10.37;;
71368;SDS011;59175;53.214;5.728;2023-02-15T16:09:36;20.85;;;8.43;;
71368;SDS011;59175;53.214;5.728;2023-02-15T16:11:56;17.83;;;9.02;;
71368;SDS011;59175;53.214;5.728;2023-02-15T16:14:31;26.95;;;9.80;;
71368;SDS011;59175;53.214;5.728;2023-02-15T16:16:58;20.15;;;8.30;;
71368;SDS011;59175;53.214;5.728;2023-02-15T16:19:26;28.30;;;9.70;;
71368;SDS011;59175;53.214;5.728;2023-02-15T16:21:52;21.85;;;8.50;;
71368;SDS011;59175;53.214;5.728;2023-02-15T16:27:02;20.42;;;7.72;;
71368;SDS011;59175;53.214;5.728;2023-02-15T16:29:31;22.33;;;11.18;;
71368;SDS011;59175;53.214;5.728;2023-02-15T16:32:19;27.48;;;8.50;;
71368;SDS011;59175;53.214;5.728;2023-02-15T16:34:50;21.13;;;8.98;;
71368;SDS011;59175;53.214;5.728;2023-02-15T16:37:16;20.00;;;7.83;;
71368;SDS011;59175;53.214;5.728;2023-02-15T16:39:43;17.85;;;8.52;;
71368;SDS011;59175;53.214;5.728;2023-02-15T16:42:08;24.38;;;9.27;;
71368;SDS011;59175;53.214;5.728;2023-02-15T16:44:35;26.13;;;7.93;;
71368;SDS011;59175;53.214;5.728;2023-02-15T16:47:00;22.37;;;8.67;;
71368;SDS011;59175;53.214;5.728;2023-02-15T16:49:26;23.73;;;9.20;;
71368;SDS011;59175;53.214;5.728;2023-02-15T16:54:56;17.67;;;8.20;;
71368;SDS011;59175;53.214;5.728;2023-02-15T16:57:26;14.85;;;8.10;;
71368;SDS011;59175;53.214;5.728;2023-02-15T16:59:53;30.60;;;8.95;;
71368;SDS011;59175;53.214;5.728;2023-02-15T17:02:24;19.40;;;7.60;;
71368;SDS011;59175;53.214;5.728;2023-02-15T17:05:07;22.55;;;11.10;;
71368;SDS011;59175;53.214;5.728;2023-02-15T17:07:40;21.42;;;7.95;;
71368;SDS011;59175;53.214;5.728;2023-02-15T17:10:25;27.42;;;8.52;;
71368;SDS011;59175;53.214;5.728;2023-02-15T17:12:54;17.70;;;10.13;;
71368;SDS011;59175;53.214;5.728;2023-02-15T17:17:51;23.55;;;9.70;;
71368;SDS011;59175;53.214;5.728;2023-02-15T17:20:16;26.00;;;9.40;;
71368;SDS011;59175;53.214;5.728;2023-02-15T17:22:43;12.50;;;6.70;;
71368;SDS011;59175;53.214;5.728;2023-02-15T17:25:18;18.17;;;8.20;;
71368;SDS011;59175;53.214;5.728;2023-02-15T17:27:43;20.95;;;9.88;;
71368;SDS011;59175;53.214;5.728;2023-02-15T17:30:12;26.67;;;10.50;;
71368;SDS011;59175;53.214;5.728;2023-02-15T17:32:38;23.92;;;10.32;;
71368;SDS011;59175;53.214;5.728;2023-02-15T17:35:27;17.77;;;8.03;;
71368;SDS011;59175;53.214;5.728;2023-02-15T17:38:00;22.58;;;8.45;;
71368;SDS011;59175;53.214;5.728;2023-02-15T17:40:27;20.95;;;9.45;;
71368;SDS011;59175;53.214;5.728;2023-02-15T17:42:52;25.30;;;10.02;;
71368;SDS011;59175;53.214;5.728;2023-02-15T17:45:18;27.00;;;10.37;;